SWA279 KAUS-KOKC
Flight info
| Callsign | SWA279 |
|---|---|
| Flight time | 0h 57m |
| Altitude | 36000 |
| Route | ELOEL3 KLNGR MQP YUCKS YUCKS3 |
| Aircraft | B737/M-SADE2E3GIJ4RWZ/LB1D1 |
Departure
| Time | 2026-03-27 10:33 |
|---|---|
| Airport | Austin Bergstrom International Airport (KAUS) |
Arrival
| Time | 2026-03-27 11:30 |
|---|---|
| Airport | OKC Will Rogers World Airport (KOKC) |
| Time | Latitude | Longitude | Altitude | Speed | Heading |
|---|---|---|---|---|---|
| 2026-03-27 10:11 | 30.20141 | -97.66636 | 500 ft | 0 kts | 351° |
| 2026-03-27 10:25 | 30.20130 | -97.66634 | 500 ft | 4 kts | 351° |
| 2026-03-27 10:25 | 30.20106 | -97.66631 | 500 ft | 3 kts | 358° |
| 2026-03-27 10:25 | 30.20086 | -97.66632 | 500 ft | 2 kts | 12° |
| 2026-03-27 10:25 | 30.20075 | -97.66636 | 500 ft | 2 kts | 34° |
| 2026-03-27 10:26 | 30.20067 | -97.66645 | 500 ft | 2 kts | 64° |
| 2026-03-27 10:26 | 30.20063 | -97.66657 | 500 ft | 2 kts | 80° |
| 2026-03-27 10:26 | 30.20061 | -97.66670 | 500 ft | 2 kts | 85° |
| 2026-03-27 10:26 | 30.20061 | -97.66676 | 500 ft | 0 kts | 85° |
| 2026-03-27 10:28 | 30.20061 | -97.66675 | 500 ft | 1 kts | 85° |
| 2026-03-27 10:29 | 30.20062 | -97.66656 | 500 ft | 5 kts | 84° |
| 2026-03-27 10:29 | 30.20070 | -97.66599 | 500 ft | 10 kts | 78° |
| 2026-03-27 10:29 | 30.20089 | -97.66506 | 500 ft | 14 kts | 86° |
| 2026-03-27 10:29 | 30.20063 | -97.66396 | 500 ft | 16 kts | 163° |
| 2026-03-27 10:30 | 30.19948 | -97.66387 | 500 ft | 17 kts | 162° |
| 2026-03-27 10:30 | 30.19914 | -97.66263 | 500 ft | 19 kts | 89° |
| 2026-03-27 10:30 | 30.19918 | -97.66099 | 491 ft | 21 kts | 89° |
| 2026-03-27 10:30 | 30.19994 | -97.65991 | 490 ft | 20 kts | 2° |
| 2026-03-27 10:31 | 30.20113 | -97.65994 | 491 ft | 12 kts | 358° |
| 2026-03-27 10:31 | 30.20195 | -97.65997 | 488 ft | 12 kts | 359° |
| 2026-03-27 10:31 | 30.20276 | -97.65999 | 487 ft | 11 kts | 357° |
| 2026-03-27 10:31 | 30.20330 | -97.65997 | 487 ft | 6 kts | 7° |
| 2026-03-27 10:32 | 30.20365 | -97.65966 | 487 ft | 8 kts | 73° |
| 2026-03-27 10:32 | 30.20370 | -97.65893 | 484 ft | 10 kts | 86° |
| 2026-03-27 10:32 | 30.20370 | -97.65810 | 488 ft | 11 kts | 114° |
| 2026-03-27 10:32 | 30.20278 | -97.65788 | 482 ft | 24 kts | 178° |
| 2026-03-27 10:33 | 30.19840 | -97.65777 | 476 ft | 100 kts | 178° |
| 2026-03-27 10:33 | 30.18946 | -97.65753 | 578 ft | 149 kts | 179° |
| 2026-03-27 10:33 | 30.17862 | -97.65713 | 1213 ft | 162 kts | 183° |
| 2026-03-27 10:33 | 30.16752 | -97.65969 | 1969 ft | 167 kts | 199° |
| 2026-03-27 10:34 | 30.15740 | -97.66631 | 2881 ft | 170 kts | 220° |
| 2026-03-27 10:34 | 30.15181 | -97.67881 | 3676 ft | 190 kts | 256° |
| 2026-03-27 10:34 | 30.15359 | -97.69547 | 3937 ft | 233 kts | 289° |
| 2026-03-27 10:34 | 30.16428 | -97.71130 | 4230 ft | 271 kts | 320° |
| 2026-03-27 10:35 | 30.18192 | -97.72067 | 4895 ft | 284 kts | 342° |
| 2026-03-27 10:35 | 30.20097 | -97.72614 | 5779 ft | 286 kts | 346° |
| 2026-03-27 10:35 | 30.22056 | -97.73072 | 6893 ft | 286 kts | 347° |
| 2026-03-27 10:35 | 30.24018 | -97.73515 | 7940 ft | 290 kts | 348° |
| 2026-03-27 10:36 | 30.26007 | -97.73972 | 8994 ft | 290 kts | 348° |
| 2026-03-27 10:36 | 30.27994 | -97.74439 | 10084 ft | 292 kts | 348° |
| 2026-03-27 10:36 | 30.30023 | -97.74924 | 10733 ft | 309 kts | 349° |
| 2026-03-27 10:36 | 30.32222 | -97.75457 | 11043 ft | 333 kts | 349° |
| 2026-03-27 10:37 | 30.34518 | -97.76021 | 11847 ft | 339 kts | 349° |
| 2026-03-27 10:37 | 30.36801 | -97.76587 | 12806 ft | 339 kts | 349° |
| 2026-03-27 10:37 | 30.39134 | -97.77166 | 13622 ft | 346 kts | 349° |
| 2026-03-27 10:37 | 30.41502 | -97.77757 | 14377 ft | 350 kts | 350° |
| 2026-03-27 10:38 | 30.43893 | -97.78355 | 15271 ft | 351 kts | 349° |
| 2026-03-27 10:38 | 30.46276 | -97.78951 | 16063 ft | 354 kts | 349° |
| 2026-03-27 10:38 | 30.48707 | -97.79560 | 16851 ft | 358 kts | 349° |
| 2026-03-27 10:38 | 30.51162 | -97.80174 | 17580 ft | 362 kts | 349° |
| 2026-03-27 10:39 | 30.53638 | -97.80795 | 17966 ft | 366 kts | 349° |
| 2026-03-27 10:39 | 30.56145 | -97.81424 | 18674 ft | 368 kts | 349° |
| 2026-03-27 10:39 | 30.58620 | -97.82045 | 19404 ft | 369 kts | 349° |
| 2026-03-27 10:39 | 30.61149 | -97.82680 | 20037 ft | 374 kts | 349° |
| 2026-03-27 10:40 | 30.63717 | -97.83325 | 20672 ft | 379 kts | 348° |
| 2026-03-27 10:40 | 30.66306 | -97.83976 | 21380 ft | 381 kts | 348° |
| 2026-03-27 10:40 | 30.68918 | -97.84633 | 22050 ft | 385 kts | 348° |
| 2026-03-27 10:40 | 30.71524 | -97.85289 | 22640 ft | 390 kts | 348° |
| 2026-03-27 10:41 | 30.74184 | -97.85974 | 23313 ft | 392 kts | 346° |
| 2026-03-27 10:41 | 30.76829 | -97.86871 | 23803 ft | 398 kts | 342° |
| 2026-03-27 10:41 | 30.79467 | -97.87869 | 24417 ft | 398 kts | 342° |
| 2026-03-27 10:41 | 30.82115 | -97.88890 | 24912 ft | 403 kts | 342° |
| 2026-03-27 10:42 | 30.84788 | -97.89910 | 25431 ft | 405 kts | 342° |
| 2026-03-27 10:42 | 30.87450 | -97.90909 | 25970 ft | 408 kts | 342° |
| 2026-03-27 10:42 | 30.90169 | -97.91922 | 26485 ft | 411 kts | 342° |
| 2026-03-27 10:42 | 30.92909 | -97.92939 | 27016 ft | 413 kts | 343° |
| 2026-03-27 10:43 | 30.95662 | -97.93958 | 27528 ft | 416 kts | 343° |
| 2026-03-27 10:43 | 31.01219 | -97.96017 | 28531 ft | 422 kts | 343° |
| 2026-03-27 10:43 | 31.04032 | -97.97061 | 28995 ft | 425 kts | 343° |
| 2026-03-27 10:44 | 31.06825 | -97.98098 | 29483 ft | 427 kts | 343° |
| 2026-03-27 10:44 | 31.09665 | -97.99155 | 30131 ft | 425 kts | 343° |
| 2026-03-27 10:44 | 31.12481 | -98.00203 | 30788 ft | 421 kts | 343° |
| 2026-03-27 10:44 | 31.15259 | -98.01237 | 31424 ft | 418 kts | 343° |
| 2026-03-27 10:45 | 31.17993 | -98.02256 | 31976 ft | 416 kts | 342° |
| 2026-03-27 10:45 | 31.20760 | -98.03239 | 32489 ft | 415 kts | 346° |
| 2026-03-27 10:45 | 31.23603 | -98.03826 | 33015 ft | 413 kts | 354° |
| 2026-03-27 10:45 | 31.26446 | -98.03903 | 33576 ft | 410 kts | 0° |
| 2026-03-27 10:46 | 31.29298 | -98.03821 | 34097 ft | 408 kts | 1° |
| 2026-03-27 10:46 | 31.32152 | -98.03714 | 34478 ft | 408 kts | 1° |
| 2026-03-27 10:46 | 31.34996 | -98.03606 | 34824 ft | 409 kts | 1° |
| 2026-03-27 10:46 | 31.37808 | -98.03505 | 35192 ft | 408 kts | 0° |
| 2026-03-27 10:47 | 31.40651 | -98.03411 | 35551 ft | 408 kts | 0° |
| 2026-03-27 10:47 | 31.43497 | -98.03324 | 35912 ft | 408 kts | 0° |
| 2026-03-27 10:47 | 31.46357 | -98.03241 | 35980 ft | 414 kts | 0° |
| 2026-03-27 10:48 | 31.52121 | -98.03080 | 35989 ft | 412 kts | 0° |
| 2026-03-27 10:48 | 31.57764 | -98.02923 | 36006 ft | 405 kts | 0° |
| 2026-03-27 10:49 | 31.63422 | -98.02767 | 36019 ft | 407 kts | 0° |
| 2026-03-27 10:49 | 31.69073 | -98.02610 | 36022 ft | 408 kts | 0° |
| 2026-03-27 10:50 | 31.74776 | -98.02452 | 36010 ft | 410 kts | 360° |
| 2026-03-27 10:50 | 31.80493 | -98.02293 | 35996 ft | 410 kts | 360° |
| 2026-03-27 10:51 | 31.86181 | -98.02134 | 35983 ft | 410 kts | 360° |
| 2026-03-27 10:51 | 31.91886 | -98.01974 | 35971 ft | 408 kts | 360° |
| 2026-03-27 10:52 | 31.97534 | -98.01817 | 35962 ft | 407 kts | 360° |
| 2026-03-27 10:52 | 32.03201 | -98.01658 | 35983 ft | 405 kts | 359° |
| 2026-03-27 10:53 | 32.08811 | -98.01501 | 35991 ft | 405 kts | 359° |
| 2026-03-27 10:53 | 32.14451 | -98.01343 | 36002 ft | 404 kts | 359° |
| 2026-03-27 10:54 | 32.20088 | -98.01185 | 36006 ft | 404 kts | 359° |
| 2026-03-27 10:54 | 32.25688 | -98.01027 | 36004 ft | 405 kts | 359° |
| 2026-03-27 10:55 | 32.31332 | -98.00868 | 35995 ft | 405 kts | 359° |
| 2026-03-27 10:55 | 32.36950 | -98.00710 | 36001 ft | 405 kts | 359° |
| 2026-03-27 10:56 | 32.42603 | -98.00550 | 35999 ft | 405 kts | 359° |
| 2026-03-27 10:56 | 32.47302 | -98.00417 | 36000 ft | 405 kts | 359° |
| 2026-03-27 10:57 | 32.53863 | -98.00232 | 35995 ft | 405 kts | 359° |
| 2026-03-27 10:57 | 32.59502 | -98.00072 | 35960 ft | 405 kts | 359° |
| 2026-03-27 10:58 | 32.64194 | -97.99939 | 35961 ft | 404 kts | 359° |
| 2026-03-27 10:58 | 32.69834 | -97.99779 | 35958 ft | 404 kts | 359° |
| 2026-03-27 10:59 | 32.75431 | -97.99666 | 35966 ft | 403 kts | 358° |
| 2026-03-27 10:59 | 32.81046 | -97.99709 | 35964 ft | 402 kts | 357° |
| 2026-03-27 11:00 | 32.86616 | -97.99773 | 35962 ft | 402 kts | 357° |
| 2026-03-27 11:00 | 32.92225 | -97.99823 | 35964 ft | 402 kts | 357° |
| 2026-03-27 11:01 | 32.97788 | -97.99864 | 36021 ft | 402 kts | 357° |
| 2026-03-27 11:01 | 33.03397 | -97.99901 | 36038 ft | 402 kts | 357° |
| 2026-03-27 11:02 | 33.08964 | -97.99937 | 36047 ft | 402 kts | 357° |
| 2026-03-27 11:02 | 33.14562 | -97.99973 | 36047 ft | 402 kts | 356° |
| 2026-03-27 11:03 | 33.20167 | -98.00010 | 36052 ft | 401 kts | 356° |
| 2026-03-27 11:03 | 33.25728 | -98.00046 | 36057 ft | 401 kts | 356° |
| 2026-03-27 11:04 | 33.31287 | -98.00083 | 36039 ft | 401 kts | 356° |
| 2026-03-27 11:04 | 33.36885 | -98.00120 | 36023 ft | 401 kts | 356° |
| 2026-03-27 11:05 | 33.42449 | -98.00157 | 36003 ft | 401 kts | 356° |
| 2026-03-27 11:05 | 33.48050 | -98.00194 | 35990 ft | 401 kts | 356° |
| 2026-03-27 11:06 | 33.53654 | -98.00231 | 35975 ft | 402 kts | 356° |
| 2026-03-27 11:06 | 33.59224 | -98.00268 | 35978 ft | 402 kts | 356° |
| 2026-03-27 11:06 | 33.62031 | -98.00287 | 35701 ft | 405 kts | 356° |
| 2026-03-27 11:07 | 33.64863 | -98.00306 | 35216 ft | 405 kts | 356° |
| 2026-03-27 11:07 | 33.67692 | -98.00325 | 34688 ft | 404 kts | 356° |
| 2026-03-27 11:07 | 33.70487 | -98.00342 | 34273 ft | 400 kts | 356° |
| 2026-03-27 11:07 | 33.73238 | -98.00359 | 33813 ft | 398 kts | 356° |
| 2026-03-27 11:08 | 33.76003 | -98.00377 | 33326 ft | 395 kts | 356° |
| 2026-03-27 11:08 | 33.78751 | -98.00395 | 32861 ft | 393 kts | 356° |
| 2026-03-27 11:08 | 33.81485 | -98.00412 | 32421 ft | 390 kts | 356° |
| 2026-03-27 11:08 | 33.84155 | -98.00430 | 31992 ft | 387 kts | 356° |
| 2026-03-27 11:09 | 33.86844 | -98.00448 | 31568 ft | 385 kts | 356° |
| 2026-03-27 11:09 | 33.89520 | -98.00466 | 31141 ft | 383 kts | 356° |
| 2026-03-27 11:09 | 33.92181 | -98.00484 | 30725 ft | 381 kts | 356° |
| 2026-03-27 11:09 | 33.94834 | -98.00501 | 30318 ft | 379 kts | 356° |
| 2026-03-27 11:10 | 33.97437 | -98.00519 | 29876 ft | 378 kts | 356° |
| 2026-03-27 11:10 | 34.00077 | -98.00537 | 29402 ft | 376 kts | 356° |
| 2026-03-27 11:10 | 34.02655 | -98.00554 | 28941 ft | 373 kts | 356° |
| 2026-03-27 11:10 | 34.05239 | -98.00571 | 28491 ft | 370 kts | 356° |
| 2026-03-27 11:11 | 34.07808 | -98.00588 | 28054 ft | 367 kts | 356° |
| 2026-03-27 11:11 | 34.10354 | -98.00605 | 27623 ft | 364 kts | 356° |
| 2026-03-27 11:11 | 34.12887 | -98.00622 | 27206 ft | 361 kts | 356° |
| 2026-03-27 11:11 | 34.15366 | -98.00638 | 26796 ft | 359 kts | 356° |
| 2026-03-27 11:12 | 34.17857 | -98.00655 | 26391 ft | 356 kts | 356° |
| 2026-03-27 11:12 | 34.20337 | -98.00672 | 25982 ft | 354 kts | 356° |
| 2026-03-27 11:12 | 34.22800 | -98.00689 | 25579 ft | 353 kts | 356° |
| 2026-03-27 11:12 | 34.25218 | -98.00705 | 25179 ft | 351 kts | 356° |
| 2026-03-27 11:13 | 34.27664 | -98.00722 | 24774 ft | 349 kts | 356° |
| 2026-03-27 11:13 | 34.30095 | -98.00739 | 24353 ft | 348 kts | 356° |
| 2026-03-27 11:13 | 34.32523 | -98.00755 | 23947 ft | 347 kts | 356° |
| 2026-03-27 11:13 | 34.34912 | -98.00772 | 23513 ft | 347 kts | 357° |
| 2026-03-27 11:14 | 34.37324 | -98.00788 | 23047 ft | 345 kts | 357° |
| 2026-03-27 11:14 | 34.39722 | -98.00804 | 22595 ft | 343 kts | 357° |
| 2026-03-27 11:14 | 34.42105 | -98.00820 | 22170 ft | 340 kts | 357° |
| 2026-03-27 11:14 | 34.44438 | -98.00835 | 21756 ft | 338 kts | 357° |
| 2026-03-27 11:15 | 34.46790 | -98.00851 | 21340 ft | 336 kts | 356° |
| 2026-03-27 11:15 | 34.49120 | -98.00867 | 20927 ft | 334 kts | 356° |
| 2026-03-27 11:15 | 34.51434 | -98.00882 | 20519 ft | 332 kts | 356° |
| 2026-03-27 11:15 | 34.53740 | -98.00898 | 20114 ft | 330 kts | 356° |
| 2026-03-27 11:16 | 34.56037 | -98.00913 | 19709 ft | 329 kts | 356° |
| 2026-03-27 11:16 | 34.58289 | -98.00929 | 19302 ft | 328 kts | 356° |
| 2026-03-27 11:16 | 34.60573 | -98.00944 | 18894 ft | 327 kts | 356° |
| 2026-03-27 11:16 | 34.62853 | -98.00960 | 18459 ft | 327 kts | 356° |
| 2026-03-27 11:17 | 34.65130 | -98.00976 | 18016 ft | 326 kts | 356° |
| 2026-03-27 11:17 | 34.67378 | -98.00992 | 17471 ft | 328 kts | 356° |
| 2026-03-27 11:17 | 34.69661 | -98.01008 | 17027 ft | 326 kts | 356° |
| 2026-03-27 11:17 | 34.71939 | -98.01023 | 16595 ft | 325 kts | 356° |
| 2026-03-27 11:18 | 34.74168 | -98.01038 | 16178 ft | 323 kts | 356° |
| 2026-03-27 11:18 | 34.76412 | -98.01054 | 15763 ft | 321 kts | 356° |
| 2026-03-27 11:18 | 34.78647 | -98.01068 | 15366 ft | 320 kts | 356° |
| 2026-03-27 11:18 | 34.80868 | -98.01082 | 14971 ft | 319 kts | 356° |
| 2026-03-27 11:19 | 34.83094 | -98.01097 | 14548 ft | 318 kts | 356° |
| 2026-03-27 11:19 | 34.85308 | -98.01113 | 14134 ft | 318 kts | 356° |
| 2026-03-27 11:19 | 34.87504 | -98.01129 | 13694 ft | 318 kts | 356° |
| 2026-03-27 11:19 | 34.89724 | -98.01144 | 13251 ft | 318 kts | 356° |
| 2026-03-27 11:20 | 34.91934 | -98.01159 | 12821 ft | 316 kts | 356° |
| 2026-03-27 11:20 | 34.94134 | -98.01174 | 12379 ft | 316 kts | 356° |
| 2026-03-27 11:20 | 34.96335 | -98.01164 | 11932 ft | 317 kts | 2° |
| 2026-03-27 11:20 | 34.98469 | -98.00441 | 11440 ft | 322 kts | 25° |
| 2026-03-27 11:21 | 35.00282 | -97.98814 | 10893 ft | 329 kts | 40° |
| 2026-03-27 11:21 | 35.01994 | -97.96969 | 10378 ft | 324 kts | 41° |
| 2026-03-27 11:21 | 35.03644 | -97.95163 | 10108 ft | 310 kts | 41° |
| 2026-03-27 11:21 | 35.05232 | -97.93447 | 9799 ft | 299 kts | 41° |
| 2026-03-27 11:22 | 35.06786 | -97.91788 | 9433 ft | 294 kts | 41° |
| 2026-03-27 11:22 | 35.08297 | -97.90181 | 9080 ft | 289 kts | 41° |
| 2026-03-27 11:22 | 35.09806 | -97.88577 | 8726 ft | 284 kts | 42° |
| 2026-03-27 11:22 | 35.10965 | -97.86752 | 8364 ft | 278 kts | 68° |
| 2026-03-27 11:23 | 35.11487 | -97.84523 | 8047 ft | 274 kts | 84° |
| 2026-03-27 11:23 | 35.11782 | -97.82193 | 7679 ft | 281 kts | 85° |
| 2026-03-27 11:23 | 35.12066 | -97.79831 | 7304 ft | 286 kts | 84° |
| 2026-03-27 11:23 | 35.12368 | -97.77423 | 6904 ft | 288 kts | 85° |
| 2026-03-27 11:24 | 35.12681 | -97.74994 | 6489 ft | 290 kts | 84° |
| 2026-03-27 11:24 | 35.13001 | -97.72556 | 6049 ft | 289 kts | 84° |
| 2026-03-27 11:24 | 35.13496 | -97.70196 | 5566 ft | 287 kts | 66° |
| 2026-03-27 11:24 | 35.14653 | -97.68263 | 5243 ft | 276 kts | 46° |
| 2026-03-27 11:25 | 35.15965 | -97.66686 | 4909 ft | 260 kts | 45° |
| 2026-03-27 11:25 | 35.17226 | -97.65192 | 4567 ft | 245 kts | 45° |
| 2026-03-27 11:25 | 35.18402 | -97.63783 | 4378 ft | 226 kts | 45° |
| 2026-03-27 11:25 | 35.19472 | -97.62489 | 4270 ft | 204 kts | 45° |
| 2026-03-27 11:26 | 35.20425 | -97.61331 | 4186 ft | 187 kts | 45° |
| 2026-03-27 11:26 | 35.21345 | -97.60212 | 4146 ft | 185 kts | 44° |
| 2026-03-27 11:26 | 35.22336 | -97.59230 | 4045 ft | 182 kts | 21° |
| 2026-03-27 11:26 | 35.23521 | -97.58891 | 3881 ft | 170 kts | 359° |
| 2026-03-27 11:27 | 35.24673 | -97.58865 | 3720 ft | 160 kts | 355° |
| 2026-03-27 11:27 | 35.25782 | -97.58874 | 3640 ft | 159 kts | 354° |
| 2026-03-27 11:27 | 35.26883 | -97.58882 | 3458 ft | 161 kts | 355° |
| 2026-03-27 11:27 | 35.27988 | -97.58883 | 3247 ft | 158 kts | 355° |
| 2026-03-27 11:28 | 35.29080 | -97.58886 | 3077 ft | 156 kts | 354° |
| 2026-03-27 11:28 | 35.30179 | -97.58887 | 2871 ft | 158 kts | 355° |
| 2026-03-27 11:28 | 35.31291 | -97.58889 | 2660 ft | 161 kts | 356° |
| 2026-03-27 11:28 | 35.32406 | -97.58888 | 2453 ft | 159 kts | 358° |
| 2026-03-27 11:29 | 35.33475 | -97.58889 | 2239 ft | 150 kts | 359° |
| 2026-03-27 11:29 | 35.34469 | -97.58890 | 2018 ft | 135 kts | 1° |
| 2026-03-27 11:29 | 35.35352 | -97.58891 | 1850 ft | 119 kts | 1° |
| 2026-03-27 11:29 | 35.36152 | -97.58891 | 1691 ft | 110 kts | 4° |
| 2026-03-27 11:30 | 35.36931 | -97.58891 | 1517 ft | 113 kts | 1° |
| 2026-03-27 11:30 | 35.37727 | -97.58893 | 1372 ft | 119 kts | 2° |
| 2026-03-27 11:30 | 35.38524 | -97.58903 | 1292 ft | 107 kts | 2° |
| 2026-03-27 11:30 | 35.39075 | -97.58893 | 1293 ft | 39 kts | 0° |
| 2026-03-27 11:31 | 35.39195 | -97.58936 | 1292 ft | 11 kts | 316° |
| 2026-03-27 11:31 | 35.39217 | -97.59017 | 1291 ft | 10 kts | 271° |
| 2026-03-27 11:31 | 35.39217 | -97.59103 | 1291 ft | 10 kts | 270° |
| 2026-03-27 11:31 | 35.39216 | -97.59187 | 1292 ft | 10 kts | 271° |
| 2026-03-27 11:32 | 35.39269 | -97.59221 | 1293 ft | 9 kts | 359° |
| 2026-03-27 11:32 | 35.39334 | -97.59222 | 1293 ft | 9 kts | 356° |
| 2026-03-27 11:32 | 35.39380 | -97.59266 | 1295 ft | 9 kts | 284° |
| 2026-03-27 11:32 | 35.39383 | -97.59341 | 1296 ft | 9 kts | 271° |
| 2026-03-27 11:33 | 35.39384 | -97.59414 | 1296 ft | 8 kts | 269° |
| 2026-03-27 11:33 | 35.39383 | -97.59485 | 1297 ft | 8 kts | 270° |
| 2026-03-27 11:33 | 35.39383 | -97.59554 | 1297 ft | 8 kts | 270° |
| 2026-03-27 11:33 | 35.39384 | -97.59621 | 1296 ft | 8 kts | 274° |
| 2026-03-27 11:34 | 35.39406 | -97.59670 | 1296 ft | 7 kts | 335° |
| 2026-03-27 11:34 | 35.39444 | -97.59661 | 1296 ft | 2 kts | 16° |
| 2026-03-27 11:34 | 35.39454 | -97.59657 | 1296 ft | 1 kts | 15° |